Time;durP1;ratioP1;P1;durP2;ratioP2;P2;SDS_P1;SDS_P2;PMS_P1;PMS_P2;Temp;Humidity;BMP_temperature;BMP_pressure;BME280_temperature;BME280_humidity;BME280_pressure;Samples;Min_cycle;Max_cycle;Signal;HPM_P1;HPM_P2
2022/07/06 00:01:30;;;;;;;36.42;30.98;;;;;;;;;;5071299;28;20036;-72
2022/07/06 00:03:56;;;;;;;36.45;30.45;;;;;;;;;;5070987;28;20077;-72
2022/07/06 00:06:22;;;;;;;32.17;27.58;;;;;;;;;;5070042;28;20047;-71
2022/07/06 00:08:48;;;;;;;35.53;29.50;;;;;;;;;;5069578;28;20048;-72
2022/07/06 00:11:14;;;;;;;32.50;28.88;;;;;;;;;;5071104;28;20032;-72
2022/07/06 00:13:39;;;;;;;32.13;26.45;;;;;;;;;;5053074;28;20062;-71
2022/07/06 00:16:05;;;;;;;35.38;28.08;;;;;;;;;;5071465;28;20169;-71
2022/07/06 00:18:31;;;;;;;36.28;29.48;;;;;;;;;;5070718;28;20048;-71
2022/07/06 00:20:57;;;;;;;30.70;26.77;;;;;;;;;;5070745;28;20068;-72
2022/07/06 00:23:23;;;;;;;35.35;27.65;;;;;;;;;;5069456;28;20539;-71
2022/07/06 00:25:49;;;;;;;32.00;26.58;;;;;;;;;;5069573;28;20040;-71
2022/07/06 00:28:15;;;;;;;34.80;27.60;;;;;;;;;;5070325;28;20131;-71
2022/07/06 00:30:41;;;;;;;36.67;29.08;;;;;;;;;;5070875;28;20182;-71
2022/07/06 00:33:07;;;;;;;33.97;28.90;;;;;;;;;;5070188;28;20036;-71
2022/07/06 00:35:33;;;;;;;40.45;27.92;;;;;;;;;;5070883;28;20040;-71
2022/07/06 00:37:59;;;;;;;37.20;28.35;;;;;;;;;;5069883;28;20198;-72
2022/07/06 00:40:25;;;;;;;37.90;31.00;;;;;;;;;;5070245;28;20056;-71
2022/07/06 00:42:51;;;;;;;38.60;29.45;;;;;;;;;;5070151;28;20055;-72
2022/07/06 00:45:18;;;;;;;43.38;32.05;;;;;;;;;;5069534;28;20033;-71
2022/07/06 00:47:44;;;;;;;41.03;30.63;;;;;;;;;;5069069;28;20532;-71
2022/07/06 00:50:13;;;;;;;52.20;35.63;;;;;;;;;;5068656;28;20037;-71
2022/07/06 00:52:40;;;;;;;;;;;;;;;;;;5069525;28;20094;-71
2022/07/06 00:55:07;;;;;;;50.00;33.53;;;;;;;;;;5068780;28;20330;-71
2022/07/06 00:57:34;;;;;;;42.63;33.50;;;;;;;;;;5068954;28;20032;-71
2022/07/06 01:00:00;;;;;;;42.22;35.25;;;;;;;;;;5070048;28;20506;-72
2022/07/06 01:02:25;;;;;;;42.28;33.65;;;;;;;;;;5052059;28;20063;-72
2022/07/06 01:04:52;;;;;;;37.20;30.98;;;;;;;;;;5070278;28;20068;-72
2022/07/06 01:07:18;;;;;;;40.00;30.60;;;;;;;;;;5069722;28;20039;-72
2022/07/06 01:09:44;;;;;;;37.90;30.25;;;;;;;;;;5069831;28;20131;-71
2022/07/06 01:12:10;;;;;;;37.03;29.77;;;;;;;;;;5069725;28;20120;-71
2022/07/06 01:14:36;;;;;;;35.90;28.98;;;;;;;;;;5052053;28;20082;-71
2022/07/06 01:17:02;;;;;;;33.65;26.85;;;;;;;;;;5069638;28;20028;-72
2022/07/06 01:19:28;;;;;;;36.85;30.88;;;;;;;;;;5068329;28;20074;-71
2022/07/06 01:21:54;;;;;;;38.92;29.63;;;;;;;;;;5069808;28;20078;-71
2022/07/06 01:24:20;;;;;;;34.08;29.38;;;;;;;;;;5068053;28;20035;-71
2022/07/06 01:26:46;;;;;;;33.58;27.63;;;;;;;;;;5069630;28;20075;-71
2022/07/06 01:29:12;;;;;;;35.90;28.60;;;;;;;;;;5067865;28;20555;-71
2022/07/06 01:31:45;;;;;;;32.35;27.40;;;;;;;;;;5068498;28;20048;-72
2022/07/06 01:34:11;;;;;;;32.90;26.98;;;;;;;;;;5068050;28;20029;-71
2022/07/06 01:36:37;;;;;;;35.55;26.92;;;;;;;;;;5051871;28;20036;-73
2022/07/06 01:39:03;;;;;;;31.80;27.27;;;;;;;;;;5069199;28;20051;-72
2022/07/06 01:41:29;;;;;;;30.83;25.92;;;;;;;;;;5069581;28;20043;-71
2022/07/06 01:43:55;;;;;;;31.75;25.95;;;;;;;;;;5069216;28;20044;-71
2022/07/06 01:46:21;;;;;;;34.05;26.98;;;;;;;;;;5067871;28;20047;-72
2022/07/06 01:48:47;;;;;;;37.00;28.92;;;;;;;;;;5051236;28;20044;-71
2022/07/06 01:51:13;;;;;;;32.35;26.25;;;;;;;;;;5068990;28;20032;-72
2022/07/06 01:53:40;;;;;;;32.40;26.73;;;;;;;;;;5066989;28;20116;-71
2022/07/06 01:56:07;;;;;;;27.52;24.67;;;;;;;;;;5068136;28;20143;-71
2022/07/06 01:58:34;;;;;;;30.33;25.50;;;;;;;;;;5067987;28;20040;-71
2022/07/06 02:01:00;;;;;;;27.83;25.23;;;;;;;;;;5068795;28;20110;-70
2022/07/06 02:03:26;;;;;;;25.95;23.25;;;;;;;;;;5067682;28;20492;-72
2022/07/06 02:05:51;;;;;;;25.88;23.20;;;;;;;;;;5067673;28;20025;-72
2022/07/06 02:08:19;;;;;;;28.50;25.23;;;;;;;;;;5067275;28;20158;-72
2022/07/06 02:10:46;;;;;;;26.70;21.70;;;;;;;;;;5067729;28;20036;-71
2022/07/06 02:13:12;;;;;;;30.17;25.58;;;;;;;;;;5067285;28;20041;-72
2022/07/06 02:15:39;;;;;;;30.67;27.33;;;;;;;;;;5068767;28;20106;-71
2022/07/06 02:18:05;;;;;;;31.95;27.75;;;;;;;;;;5067022;28;20056;-71
2022/07/06 02:20:31;;;;;;;30.10;26.88;;;;;;;;;;5067432;28;20064;-72
2022/07/06 02:22:57;;;;;;;32.10;28.08;;;;;;;;;;5068569;28;20060;-72
2022/07/06 02:25:24;;;;;;;32.17;28.35;;;;;;;;;;5067507;28;20063;-72
2022/07/06 02:27:50;;;;;;;30.42;27.17;;;;;;;;;;5067139;28;20048;-72
2022/07/06 02:30:16;;;;;;;31.70;26.70;;;;;;;;;;5067054;28;20278;-72
2022/07/06 02:32:42;;;;;;;32.63;25.67;;;;;;;;;;5067162;28;20071;-72
2022/07/06 02:35:08;;;;;;;32.72;26.38;;;;;;;;;;5067987;28;20082;-71
2022/07/06 02:37:34;;;;;;;28.70;25.70;;;;;;;;;;5069115;28;20089;-73
2022/07/06 02:40:01;;;;;;;27.75;24.75;;;;;;;;;;5068309;28;20025;-73
2022/07/06 02:42:29;;;;;;;26.92;24.05;;;;;;;;;;5067208;28;20624;-73
2022/07/06 02:44:55;;;;;;;26.05;23.42;;;;;;;;;;5066982;28;20543;-73
2022/07/06 02:47:21;;;;;;;26.73;22.67;;;;;;;;;;5068163;28;20082;-72
2022/07/06 02:49:47;;;;;;;25.65;22.85;;;;;;;;;;5050413;28;20106;-72
2022/07/06 02:52:13;;;;;;;26.13;23.10;;;;;;;;;;5068046;28;20515;-72
2022/07/06 02:54:39;;;;;;;25.85;23.00;;;;;;;;;;5050447;28;20039;-72
2022/07/06 02:57:05;;;;;;;23.25;21.00;;;;;;;;;;5068001;28;20033;-73
2022/07/06 02:59:32;;;;;;;24.70;22.38;;;;;;;;;;5066851;28;20547;-72
2022/07/06 03:01:57;;;;;;;27.13;24.00;;;;;;;;;;5066907;28;20127;-73
2022/07/06 03:04:24;;;;;;;26.52;23.90;;;;;;;;;;5067651;28;20044;-72
2022/07/06 03:06:51;;;;;;;25.15;22.73;;;;;;;;;;5050305;28;20451;-71
2022/07/06 03:09:17;;;;;;;26.55;23.85;;;;;;;;;;5066294;28;20051;-74
2022/07/06 03:11:43;;;;;;;25.65;21.75;;;;;;;;;;5067510;28;20524;-72
2022/07/06 03:14:09;;;;;;;27.17;22.90;;;;;;;;;;5051559;28;20488;-73
2022/07/06 03:16:38;;;;;;;24.75;22.05;;;;;;;;;;5068494;28;20111;-72
2022/07/06 03:19:04;;;;;;;25.83;23.25;;;;;;;;;;5069186;28;20048;-72
2022/07/06 03:21:30;;;;;;;24.92;21.38;;;;;;;;;;5069595;28;20040;-71
2022/07/06 03:23:56;;;;;;;24.20;21.58;;;;;;;;;;5068234;28;20063;-72
2022/07/06 03:26:22;;;;;;;24.73;22.27;;;;;;;;;;5069360;28;20504;-72
2022/07/06 03:28:48;;;;;;;24.00;21.65;;;;;;;;;;5068206;28;20043;-71
2022/07/06 03:31:14;;;;;;;26.30;23.23;;;;;;;;;;5069500;28;20029;-72
2022/07/06 03:33:40;;;;;;;25.75;23.13;;;;;;;;;;5068537;28;20075;-72
2022/07/06 03:36:07;;;;;;;26.80;24.00;;;;;;;;;;5070935;28;20619;-73
2022/07/06 03:38:34;;;;;;;25.60;23.00;;;;;;;;;;5054976;28;20044;-73
2022/07/06 03:41:00;;;;;;;26.98;24.20;;;;;;;;;;5055030;28;20048;-72
2022/07/06 03:43:26;;;;;;;27.75;24.85;;;;;;;;;;5068400;28;20037;-72
2022/07/06 03:45:53;;;;;;;28.60;25.33;;;;;;;;;;5068168;28;20039;-72
2022/07/06 03:48:20;;;;;;;28.02;24.27;;;;;;;;;;5051079;28;20516;-71
2022/07/06 03:50:47;;;;;;;26.55;23.95;;;;;;;;;;5069344;28;20079;-72
2022/07/06 03:53:13;;;;;;;26.98;24.40;;;;;;;;;;5067812;28;20037;-72
2022/07/06 03:55:39;;;;;;;29.08;24.42;;;;;;;;;;5069374;28;20215;-72
2022/07/06 03:58:08;;;;;;;27.42;24.60;;;;;;;;;;5050783;28;20035;-73
2022/07/06 04:00:36;;;;;;;26.88;24.25;;;;;;;;;;5068056;28;20036;-72
2022/07/06 04:03:06;;;;;;;27.20;24.50;;;;;;;;;;5067636;28;20033;-74
2022/07/06 04:05:38;;;;;;;30.20;25.08;;;;;;;;;;5052361;28;20043;-72
2022/07/06 04:08:05;;;;;;;26.98;23.85;;;;;;;;;;5067711;28;20516;-73
2022/07/06 04:10:40;;;;;;;27.17;24.38;;;;;;;;;;5067984;28;20043;-73
2022/07/06 04:13:06;;;;;;;27.60;24.45;;;;;;;;;;5051146;28;20044;-74
2022/07/06 04:15:32;;;;;;;28.13;25.35;;;;;;;;;;5052631;28;20190;-74
2022/07/06 04:17:59;;;;;;;27.65;25.10;;;;;;;;;;5056130;28;20410;-73
2022/07/06 04:20:34;;;;;;;28.23;25.20;;;;;;;;;;5059826;28;20042;-72
2022/07/06 04:23:00;;;;;;;29.80;26.75;;;;;;;;;;5073222;28;20045;-73
2022/07/06 04:25:27;;;;;;;31.02;27.95;;;;;;;;;;5073648;28;20033;-73
2022/07/06 04:27:55;;;;;;;29.07;25.53;;;;;;;;;;5074679;28;20074;-74
2022/07/06 04:30:22;;;;;;;28.80;26.02;;;;;;;;;;5074880;28;20285;-72
2022/07/06 04:32:47;;;;;;;29.30;26.58;;;;;;;;;;5076121;28;20119;-71
2022/07/06 04:35:14;;;;;;;29.52;26.63;;;;;;;;;;5075893;28;20040;-73
2022/07/06 04:37:42;;;;;;;26.55;23.77;;;;;;;;;;5075984;28;20029;-72
2022/07/06 04:40:08;;;;;;;29.92;25.42;;;;;;;;;;5074748;28;20071;-72
2022/07/06 04:42:35;;;;;;;27.85;24.92;;;;;;;;;;5075582;28;20033;-73
2022/07/06 04:45:02;;;;;;;29.15;26.20;;;;;;;;;;5074277;28;20040;-72
2022/07/06 04:47:29;;;;;;;28.83;24.95;;;;;;;;;;5075317;28;20440;-74
2022/07/06 04:49:55;;;;;;;27.10;24.38;;;;;;;;;;5073608;28;20045;-72
2022/07/06 04:52:22;;;;;;;26.63;24.10;;;;;;;;;;5056996;28;20036;-72
2022/07/06 04:54:48;;;;;;;27.35;24.48;;;;;;;;;;5074298;28;20496;-73
2022/07/06 04:57:14;;;;;;;26.15;23.45;;;;;;;;;;5074136;28;20082;-72
2022/07/06 04:59:41;;;;;;;27.35;24.63;;;;;;;;;;5073639;28;20120;-72
2022/07/06 05:02:07;;;;;;;25.38;23.05;;;;;;;;;;5057080;28;20079;-72
2022/07/06 05:04:33;;;;;;;24.95;22.50;;;;;;;;;;5074557;28;20028;-72
2022/07/06 05:06:59;;;;;;;28.40;23.42;;;;;;;;;;5075179;28;20029;-73
2022/07/06 05:09:25;;;;;;;25.52;23.23;;;;;;;;;;5072745;28;20049;-74
2022/07/06 05:11:51;;;;;;;24.45;22.38;;;;;;;;;;5073582;28;20032;-71
2022/07/06 05:14:17;;;;;;;25.63;23.13;;;;;;;;;;5072223;28;20100;-73
2022/07/06 05:16:45;;;;;;;28.35;22.80;;;;;;;;;;5071374;28;20036;-73
2022/07/06 05:19:12;;;;;;;26.38;23.88;;;;;;;;;;5072065;28;20055;-73
2022/07/06 05:21:37;;;;;;;25.52;23.13;;;;;;;;;;5072021;28;20123;-73
2022/07/06 05:24:05;;;;;;;25.02;22.38;;;;;;;;;;5071845;28;20029;-73
2022/07/06 05:26:31;;;;;;;24.83;22.88;;;;;;;;;;5071915;28;20071;-73
2022/07/06 05:28:57;;;;;;;25.42;22.10;;;;;;;;;;5072172;28;20072;-72
2022/07/06 05:31:23;;;;;;;24.40;22.13;;;;;;;;;;5071190;28;20041;-73
2022/07/06 05:33:49;;;;;;;23.70;21.45;;;;;;;;;;5071045;28;20105;-72
2022/07/06 05:36:15;;;;;;;23.98;21.50;;;;;;;;;;5072033;28;20129;-71
2022/07/06 05:38:42;;;;;;;23.58;21.20;;;;;;;;;;5070817;28;20449;-74
2022/07/06 05:41:08;;;;;;;23.35;20.70;;;;;;;;;;5070384;28;20045;-73
2022/07/06 05:43:37;;;;;;;26.65;20.33;;;;;;;;;;5070263;28;20062;-73
2022/07/06 05:46:04;;;;;;;;;;;;;;;;;;5054246;28;20046;-72
2022/07/06 05:51:16;;;;;;;21.95;19.80;;;;;;;;;;5053440;28;20074;-73
2022/07/06 05:53:44;;;;;;;22.00;19.70;;;;;;;;;;5070004;28;20127;-74
2022/07/06 05:56:10;;;;;;;23.50;17.92;;;;;;;;;;5071544;28;20135;-74
2022/07/06 05:58:38;;;;;;;20.15;18.13;;;;;;;;;;5070001;28;20041;-73
2022/07/06 06:01:03;;;;;;;21.98;18.30;;;;;;;;;;5070399;28;20063;-72
2022/07/06 06:03:31;;;;;;;19.88;18.00;;;;;;;;;;5070056;28;20140;-74
2022/07/06 06:05:57;;;;;;;22.33;19.10;;;;;;;;;;5069832;28;20035;-73
2022/07/06 06:08:25;;;;;;;21.40;19.17;;;;;;;;;;5069381;28;20109;-73
2022/07/06 06:10:52;;;;;;;24.27;20.05;;;;;;;;;;5069963;28;20063;-72
2022/07/06 06:13:21;;;;;;;20.98;18.95;;;;;;;;;;5053402;28;20063;-73
2022/07/06 06:15:48;;;;;;;21.17;19.25;;;;;;;;;;5069884;28;20058;-72
2022/07/06 06:18:18;;;;;;;24.10;21.75;;;;;;;;;;5069717;28;20066;-73
2022/07/06 06:20:44;;;;;;;;;;;;;;;;;;5071290;28;20060;-73
2022/07/06 06:23:10;;;;;;;27.45;22.23;;;;;;;;;;5070567;28;19947;-73
2022/07/06 06:25:38;;;;;;;24.75;22.00;;;;;;;;;;5069851;28;20044;-72
2022/07/06 06:28:09;;;;;;;25.25;22.80;;;;;;;;;;5069485;28;20044;-72
2022/07/06 06:30:35;;;;;;;25.25;22.80;;;;;;;;;;5070929;28;20112;-73
2022/07/06 06:33:14;;;;;;;25.40;23.02;;;;;;;;;;5070815;28;20595;-72
2022/07/06 06:35:43;;;;;;;24.75;22.25;;;;;;;;;;5070584;28;20032;-72
2022/07/06 06:38:10;;;;;;;23.90;21.42;;;;;;;;;;5070454;28;20109;-72
2022/07/06 06:40:36;;;;;;;23.20;20.88;;;;;;;;;;5070844;28;20056;-72
2022/07/06 06:43:02;;;;;;;22.77;20.50;;;;;;;;;;5069901;28;20036;-71
2022/07/06 06:45:29;;;;;;;26.10;20.10;;;;;;;;;;5070480;28;20088;-72
2022/07/06 06:47:55;;;;;;;34.15;18.33;;;;;;;;;;5068930;28;20539;-73
2022/07/06 06:50:23;;;;;;;24.33;17.95;;;;;;;;;;5070180;28;20167;-72
2022/07/06 06:52:49;;;;;;;20.92;16.50;;;;;;;;;;5070180;28;20106;-71
2022/07/06 06:55:15;;;;;;;22.42;15.73;;;;;;;;;;5052149;28;20036;-73
2022/07/06 06:57:41;;;;;;;22.92;13.90;;;;;;;;;;5068937;28;20511;-72
2022/07/06 07:00:07;;;;;;;16.98;12.70;;;;;;;;;;5070350;28;20190;-72
2022/07/06 07:02:33;;;;;;;29.13;15.10;;;;;;;;;;5069902;28;20036;-71
2022/07/06 07:04:59;;;;;;;16.48;13.70;;;;;;;;;;5070033;28;20040;-73
2022/07/06 07:07:25;;;;;;;24.08;15.60;;;;;;;;;;5069856;28;20505;-72
2022/07/06 07:09:51;;;;;;;21.35;16.83;;;;;;;;;;5069737;28;20451;-72
2022/07/06 07:12:17;;;;;;;22.60;16.13;;;;;;;;;;5069781;28;20040;-72
2022/07/06 07:14:43;;;;;;;23.02;16.33;;;;;;;;;;5068819;28;20036;-72
2022/07/06 07:17:10;;;;;;;15.45;13.50;;;;;;;;;;5069962;28;20115;-74
2022/07/06 07:19:36;;;;;;;22.17;15.60;;;;;;;;;;5069373;28;20049;-73
2022/07/06 07:22:02;;;;;;;19.27;13.57;;;;;;;;;;5070092;28;20044;-72
2022/07/06 07:24:28;;;;;;;17.85;14.45;;;;;;;;;;5069878;28;20038;-73
2022/07/06 07:26:54;;;;;;;15.18;13.63;;;;;;;;;;5070017;28;20131;-73
2022/07/06 07:29:20;;;;;;;16.30;14.60;;;;;;;;;;5069235;28;20045;-72
2022/07/06 07:31:46;;;;;;;16.70;15.18;;;;;;;;;;5069822;28;20124;-73
2022/07/06 07:34:12;;;;;;;16.90;15.20;;;;;;;;;;5069665;28;20047;-73
2022/07/06 07:36:38;;;;;;;14.60;13.25;;;;;;;;;;5069667;28;20492;-72
2022/07/06 07:39:04;;;;;;;17.10;14.20;;;;;;;;;;5069617;28;20094;-73
2022/07/06 07:41:30;;;;;;;15.80;14.20;;;;;;;;;;5068280;28;20111;-72
2022/07/06 07:43:56;;;;;;;15.52;14.23;;;;;;;;;;5068002;28;20072;-73
2022/07/06 07:46:22;;;;;;;16.65;15.32;;;;;;;;;;5067871;28;20068;-72
2022/07/06 07:48:48;;;;;;;15.52;14.13;;;;;;;;;;5067897;28;20053;-72
2022/07/06 07:51:15;;;;;;;13.57;12.20;;;;;;;;;;5070140;28;20046;-72
2022/07/06 07:53:41;;;;;;;12.95;12.05;;;;;;;;;;5071621;28;20028;-72
2022/07/06 07:56:07;;;;;;;12.48;11.57;;;;;;;;;;5071779;28;20491;-71
2022/07/06 07:58:33;;;;;;;12.35;11.23;;;;;;;;;;5072753;28;20036;-73
2022/07/06 08:00:59;;;;;;;13.50;12.30;;;;;;;;;;5071654;28;20032;-71
2022/07/06 08:03:25;;;;;;;13.13;12.10;;;;;;;;;;5056412;28;20182;-71
2022/07/06 08:05:51;;;;;;;13.60;12.40;;;;;;;;;;5071809;28;20599;-73
2022/07/06 08:08:17;;;;;;;11.70;10.80;;;;;;;;;;5071558;28;20075;-72
2022/07/06 08:10:44;;;;;;;12.80;11.80;;;;;;;;;;5072899;28;20503;-73
2022/07/06 08:13:10;;;;;;;13.82;12.57;;;;;;;;;;5073146;28;20036;-71
2022/07/06 08:15:36;;;;;;;13.95;12.25;;;;;;;;;;5072300;28;20029;-72
2022/07/06 08:18:03;;;;;;;14.70;13.40;;;;;;;;;;5072829;28;20075;-73
2022/07/06 08:20:29;;;;;;;15.15;13.60;;;;;;;;;;5072303;28;20032;-73
2022/07/06 08:22:56;;;;;;;14.30;13.10;;;;;;;;;;5073015;28;20119;-73
2022/07/06 08:25:21;;;;;;;14.20;13.20;;;;;;;;;;5055023;28;20128;-72
2022/07/06 08:27:48;;;;;;;14.48;13.15;;;;;;;;;;5073000;28;20115;-72
2022/07/06 08:30:14;;;;;;;14.73;13.40;;;;;;;;;;5071965;28;20040;-73
2022/07/06 08:32:41;;;;;;;14.38;13.02;;;;;;;;;;5072870;28;20909;-73
2022/07/06 08:35:07;;;;;;;12.88;11.90;;;;;;;;;;5072311;28;20102;-72
2022/07/06 08:37:33;;;;;;;13.82;12.73;;;;;;;;;;5054595;28;20036;-72
2022/07/06 08:39:59;;;;;;;13.63;12.45;;;;;;;;;;5072652;28;20090;-73
2022/07/06 08:42:26;;;;;;;14.02;12.75;;;;;;;;;;5072837;28;20086;-75
2022/07/06 08:44:52;;;;;;;14.38;13.18;;;;;;;;;;5071657;28;20044;-75
2022/07/06 08:47:18;;;;;;;13.38;12.27;;;;;;;;;;5071700;28;20389;-75
2022/07/06 08:49:45;;;;;;;14.85;13.55;;;;;;;;;;5071109;28;20078;-73
2022/07/06 08:52:11;;;;;;;13.82;12.70;;;;;;;;;;5072762;28;20427;-74
2022/07/06 08:54:37;;;;;;;13.70;12.60;;;;;;;;;;5072320;28;20032;-73
2022/07/06 08:57:04;;;;;;;14.18;13.10;;;;;;;;;;5072443;28;20037;-74
2022/07/06 08:59:30;;;;;;;15.35;14.00;;;;;;;;;;5071793;28;20081;-73
2022/07/06 09:01:56;;;;;;;14.57;13.50;;;;;;;;;;5070198;28;20040;-73
2022/07/06 09:04:23;;;;;;;14.85;13.43;;;;;;;;;;5071655;28;20593;-73
2022/07/06 09:06:49;;;;;;;17.25;12.85;;;;;;;;;;5071831;28;20056;-72
2022/07/06 09:09:18;;;;;;;14.25;13.02;;;;;;;;;;5071517;28;20508;-74
2022/07/06 09:11:44;;;;;;;14.30;13.30;;;;;;;;;;5070178;28;20037;-74
2022/07/06 09:14:10;;;;;;;13.45;12.30;;;;;;;;;;5071304;28;20039;-73
2022/07/06 09:16:36;;;;;;;13.40;12.40;;;;;;;;;;5070161;28;20028;-74
2022/07/06 09:19:02;;;;;;;13.32;11.85;;;;;;;;;;5069920;28;20512;-73
2022/07/06 09:21:31;;;;;;;13.60;11.85;;;;;;;;;;5071282;28;20032;-74
2022/07/06 09:23:58;;;;;;;13.02;12.18;;;;;;;;;;5069983;28;20055;-73
2022/07/06 09:26:24;;;;;;;12.85;11.98;;;;;;;;;;5071410;28;20036;-73
2022/07/06 09:28:49;;;;;;;14.13;12.88;;;;;;;;;;5070051;28;20055;-73
2022/07/06 09:31:15;;;;;;;14.35;12.75;;;;;;;;;;5071204;28;20107;-73
2022/07/06 09:33:57;;;;;;;13.75;12.55;;;;;;;;;;5071184;28;20074;-74
2022/07/06 09:36:39;;;;;;;14.23;12.93;;;;;;;;;;5071361;28;20500;-73
2022/07/06 09:39:20;;;;;;;14.75;13.48;;;;;;;;;;5072985;28;20029;-74
2022/07/06 09:41:47;;;;;;;16.20;12.77;;;;;;;;;;5077255;28;20492;-74
2022/07/06 09:44:12;;;;;;;14.07;12.45;;;;;;;;;;5077355;28;20041;-74
2022/07/06 09:46:40;;;;;;;14.32;13.10;;;;;;;;;;5078456;28;20041;-73
2022/07/06 09:49:06;;;;;;;16.70;13.18;;;;;;;;;;5072786;28;20469;-73
2022/07/06 09:51:35;;;;;;;13.77;12.82;;;;;;;;;;5069857;28;20036;-73
2022/07/06 09:54:00;;;;;;;14.43;13.13;;;;;;;;;;5070696;28;20043;-72
2022/07/06 09:56:40;;;;;;;14.52;13.13;;;;;;;;;;5069158;28;20036;-75
2022/07/06 09:59:12;;;;;;;17.92;12.98;;;;;;;;;;5070964;28;20036;-73
2022/07/06 10:01:38;;;;;;;14.30;13.15;;;;;;;;;;5071085;28;20036;-74
2022/07/06 10:04:07;;;;;;;13.90;12.65;;;;;;;;;;5070673;28;20040;-73
2022/07/06 10:06:33;;;;;;;14.02;12.73;;;;;;;;;;5070545;28;20032;-74
2022/07/06 10:08:59;;;;;;;13.90;12.60;;;;;;;;;;5070422;28;20044;-74
2022/07/06 10:11:25;;;;;;;13.73;12.63;;;;;;;;;;5070477;28;20033;-74
2022/07/06 10:13:54;;;;;;;13.88;12.45;;;;;;;;;;5051798;28;20146;-75
2022/07/06 10:16:24;;;;;;;14.82;13.43;;;;;;;;;;5070314;28;20040;-73
2022/07/06 10:18:55;;;;;;;15.40;13.23;;;;;;;;;;5068620;28;20589;-73
2022/07/06 10:21:22;;;;;;;14.30;13.30;;;;;;;;;;5070579;28;20035;-74
2022/07/06 10:23:49;;;;;;;14.05;12.82;;;;;;;;;;5069756;28;20036;-75
2022/07/06 10:26:16;;;;;;;16.55;13.52;;;;;;;;;;5068987;28;20043;-74
2022/07/06 10:28:42;;;;;;;15.15;13.85;;;;;;;;;;5069924;28;20044;-74
2022/07/06 10:31:08;;;;;;;15.68;14.45;;;;;;;;;;5070039;28;20032;-74
2022/07/06 10:33:34;;;;;;;12.75;11.65;;;;;;;;;;5070010;28;20052;-73
2022/07/06 10:35:59;;;;;;;14.38;13.20;;;;;;;;;;5068646;28;20028;-73
2022/07/06 10:38:33;;;;;;;15.75;14.18;;;;;;;;;;5069928;28;20036;-73
2022/07/06 10:41:09;;;;;;;14.15;13.15;;;;;;;;;;5069746;28;20040;-73
2022/07/06 10:43:38;;;;;;;16.30;14.57;;;;;;;;;;5069784;28;20442;-73
2022/07/06 10:46:08;;;;;;;15.30;13.75;;;;;;;;;;5069863;28;20070;-73
2022/07/06 10:48:34;;;;;;;;;;;;;;;;;;5052137;28;20072;-73
2022/07/06 10:51:01;;;;;;;15.02;13.57;;;;;;;;;;5069545;28;19958;-73
2022/07/06 10:53:27;;;;;;;15.38;14.05;;;;;;;;;;5068449;28;20036;-73
2022/07/06 10:55:56;;;;;;;14.68;13.38;;;;;;;;;;5051266;28;20042;-72
2022/07/06 10:58:41;;;;;;;13.30;12.05;;;;;;;;;;5069966;28;20097;-73
2022/07/06 11:01:10;;;;;;;13.30;12.13;;;;;;;;;;5069616;28;20036;-73
2022/07/06 11:03:41;;;;;;;12.13;11.10;;;;;;;;;;5069588;28;20044;-72
2022/07/06 11:06:09;;;;;;;12.02;11.10;;;;;;;;;;5068499;28;20036;-71
2022/07/06 11:08:45;;;;;;;10.95;9.88;;;;;;;;;;5069512;28;20050;-74
2022/07/06 11:11:16;;;;;;;11.10;10.13;;;;;;;;;;5069300;28;20133;-73
2022/07/06 11:14:02;;;;;;;9.20;8.50;;;;;;;;;;5069657;28;20052;-72
2022/07/06 11:16:36;;;;;;;8.55;7.95;;;;;;;;;;5056666;28;20028;-72
2022/07/06 11:19:03;;;;;;;9.15;8.52;;;;;;;;;;5067565;28;20515;-71
2022/07/06 11:21:36;;;;;;;9.75;8.93;;;;;;;;;;5067516;28;20393;-72
2022/07/06 11:24:02;;;;;;;9.77;9.05;;;;;;;;;;5066456;28;20585;-72
2022/07/06 11:26:28;;;;;;;9.40;8.70;;;;;;;;;;5053708;28;20086;-73
2022/07/06 11:28:54;;;;;;;9.80;8.95;;;;;;;;;;5071315;28;20149;-72
2022/07/06 11:31:20;;;;;;;9.20;8.25;;;;;;;;;;5070439;28;20032;-73
2022/07/06 11:33:46;;;;;;;10.25;9.40;;;;;;;;;;5070206;28;20044;-73
2022/07/06 11:36:15;;;;;;;10.07;9.45;;;;;;;;;;5071643;28;20569;-73
2022/07/06 11:38:41;;;;;;;9.93;9.02;;;;;;;;;;5071436;28;20064;-73
2022/07/06 11:41:07;;;;;;;10.68;9.98;;;;;;;;;;5070112;28;20037;-72
2022/07/06 11:43:33;;;;;;;12.85;10.25;;;;;;;;;;5071251;28;20036;-74
2022/07/06 11:45:59;;;;;;;12.23;10.38;;;;;;;;;;5070021;28;20044;-74
2022/07/06 11:48:25;;;;;;;11.88;10.93;;;;;;;;;;5070260;28;20049;-74
2022/07/06 11:51:01;;;;;;;11.20;10.48;;;;;;;;;;5071350;28;20089;-72
2022/07/06 11:53:27;;;;;;;11.25;10.30;;;;;;;;;;5071354;28;20466;-73
2022/07/06 11:55:54;;;;;;;11.45;10.63;;;;;;;;;;5069579;28;20029;-73
2022/07/06 11:58:21;;;;;;;11.52;10.63;;;;;;;;;;5071140;28;20032;-73
2022/07/06 12:01:07;;;;;;;11.32;10.43;;;;;;;;;;5069512;28;20390;-73
2022/07/06 12:03:34;;;;;;;11.65;10.50;;;;;;;;;;5071781;28;20145;-72
2022/07/06 12:06:03;;;;;;;11.27;10.38;;;;;;;;;;5071078;28;20033;-73
2022/07/06 12:08:29;;;;;;;12.98;11.23;;;;;;;;;;5070997;28;20043;-73
2022/07/06 12:10:56;;;;;;;11.05;9.98;;;;;;;;;;5070776;28;20055;-73
2022/07/06 12:13:23;;;;;;;13.60;11.50;;;;;;;;;;5070978;28;20040;-74
2022/07/06 12:15:49;;;;;;;12.65;10.20;;;;;;;;;;5069322;28;20047;-73
2022/07/06 12:18:15;;;;;;;11.73;10.63;;;;;;;;;;5052523;28;20467;-73
2022/07/06 12:20:41;;;;;;;10.50;9.52;;;;;;;;;;5069190;28;20117;-73
2022/07/06 12:23:07;;;;;;;9.18;8.40;;;;;;;;;;5069332;28;20567;-71
2022/07/06 12:25:33;;;;;;;9.02;8.40;;;;;;;;;;5070452;28;20123;-73
2022/07/06 12:27:59;;;;;;;9.57;8.60;;;;;;;;;;5070165;28;20359;-71
2022/07/06 12:30:25;;;;;;;8.88;8.13;;;;;;;;;;5070574;28;20246;-73
2022/07/06 12:33:09;;;;;;;8.15;7.45;;;;;;;;;;5070474;28;20016;-74
2022/07/06 12:35:35;;;;;;;8.50;7.78;;;;;;;;;;5070363;28;20055;-74
2022/07/06 12:38:01;;;;;;;8.93;8.23;;;;;;;;;;5070042;28;20115;-73
2022/07/06 12:40:31;;;;;;;8.10;7.30;;;;;;;;;;5069315;28;20599;-73
2022/07/06 12:42:57;;;;;;;7.88;7.28;;;;;;;;;;5068927;28;20480;-74
2022/07/06 12:45:27;;;;;;;7.88;7.18;;;;;;;;;;5069723;28;20440;-73
2022/07/06 12:48:19;;;;;;;8.13;7.13;;;;;;;;;;5071313;28;20040;-74
2022/07/06 12:50:46;;;;;;;8.35;7.65;;;;;;;;;;5072689;28;20473;-72
2022/07/06 12:53:25;;;;;;;7.93;7.22;;;;;;;;;;5075899;28;20044;-72
2022/07/06 12:56:10;;;;;;;8.15;7.45;;;;;;;;;;5073980;28;20040;-74
2022/07/06 12:58:36;;;;;;;7.65;6.97;;;;;;;;;;5069136;28;20111;-72
2022/07/06 13:01:02;;;;;;;6.88;6.25;;;;;;;;;;5069887;28;20090;-73
2022/07/06 13:03:28;;;;;;;8.73;6.25;;;;;;;;;;5069979;28;20048;-74
2022/07/06 13:05:54;;;;;;;7.05;6.25;;;;;;;;;;5051713;28;20037;-73
2022/07/06 13:08:20;;;;;;;6.97;6.38;;;;;;;;;;5069551;28;20049;-73
2022/07/06 13:10:46;;;;;;;6.85;6.15;;;;;;;;;;5069623;28;20044;-73
2022/07/06 13:13:13;;;;;;;7.03;6.47;;;;;;;;;;5069842;28;20115;-74
2022/07/06 13:15:41;;;;;;;7.15;6.28;;;;;;;;;;5069454;28;20039;-72
2022/07/06 13:18:07;;;;;;;10.15;6.70;;;;;;;;;;5069279;28;20048;-73
2022/07/06 13:20:33;;;;;;;6.90;6.38;;;;;;;;;;5069730;28;20040;-72
2022/07/06 13:22:59;;;;;;;7.22;6.63;;;;;;;;;;5067982;28;20033;-74
2022/07/06 13:25:25;;;;;;;16.08;7.30;;;;;;;;;;5069460;28;20044;-73
2022/07/06 13:27:50;;;;;;;11.63;6.65;;;;;;;;;;5051282;28;20028;-73
2022/07/06 13:30:16;;;;;;;7.78;6.50;;;;;;;;;;5069129;28;20124;-72
2022/07/06 13:32:42;;;;;;;7.22;6.55;;;;;;;;;;5069320;28;20036;-75
2022/07/06 13:35:09;;;;;;;7.50;6.82;;;;;;;;;;5069028;28;20466;-73
2022/07/06 13:37:35;;;;;;;7.47;6.88;;;;;;;;;;5067855;28;20024;-73
2022/07/06 13:40:01;;;;;;;9.15;7.30;;;;;;;;;;5067884;28;20068;-72
2022/07/06 13:42:29;;;;;;;12.60;7.35;;;;;;;;;;5066354;28;20547;-73
2022/07/06 13:44:55;;;;;;;9.27;7.45;;;;;;;;;;5069848;28;20402;-73
2022/07/06 13:47:21;;;;;;;12.93;7.85;;;;;;;;;;5068464;28;20108;-73
2022/07/06 13:49:47;;;;;;;8.20;7.50;;;;;;;;;;5066224;28;20036;-74
2022/07/06 13:52:13;;;;;;;10.38;8.10;;;;;;;;;;5068302;28;20028;-73
2022/07/06 13:54:39;;;;;;;8.25;7.53;;;;;;;;;;5068818;28;20082;-73
2022/07/06 13:57:06;;;;;;;9.05;8.30;;;;;;;;;;5068815;28;20088;-72
2022/07/06 13:59:32;;;;;;;9.82;8.27;;;;;;;;;;5068938;28;20048;-72
2022/07/06 14:01:58;;;;;;;11.63;8.52;;;;;;;;;;5067255;28;20488;-74
2022/07/06 14:04:24;;;;;;;9.38;8.68;;;;;;;;;;5067847;28;20039;-74
2022/07/06 14:06:50;;;;;;;11.82;9.48;;;;;;;;;;5067798;28;20028;-73
2022/07/06 14:09:16;;;;;;;10.65;9.05;;;;;;;;;;5066890;28;20063;-73
2022/07/06 14:11:42;;;;;;;12.43;8.68;;;;;;;;;;5068478;28;20056;-73
2022/07/06 14:14:08;;;;;;;8.15;7.63;;;;;;;;;;5068494;28;20127;-73
2022/07/06 14:16:37;;;;;;;9.02;8.32;;;;;;;;;;5067082;28;20127;-72
2022/07/06 14:19:03;;;;;;;8.37;7.80;;;;;;;;;;5067839;28;20056;-74
2022/07/06 14:21:30;;;;;;;8.50;7.80;;;;;;;;;;5068283;28;20043;-73
2022/07/06 14:23:56;;;;;;;8.35;7.75;;;;;;;;;;5066641;28;20527;-72
2022/07/06 14:26:22;;;;;;;8.63;7.80;;;;;;;;;;5066923;28;20036;-73